sensor_id;sensor_type;location;lat;lon;timestamp;P1;durP1;ratioP1;P2;durP2;ratioP2
37241;SDS011;23135;51.078;12.108;2023-06-26T00:00:02;4.93;;;4.43;;
37241;SDS011;23135;51.078;12.108;2023-06-26T00:02:30;7.50;;;4.28;;
37241;SDS011;23135;51.078;12.108;2023-06-26T00:04:57;6.05;;;3.80;;
37241;SDS011;23135;51.078;12.108;2023-06-26T00:07:23;5.55;;;4.22;;
37241;SDS011;23135;51.078;12.108;2023-06-26T00:09:48;7.47;;;4.97;;
37241;SDS011;23135;51.078;12.108;2023-06-26T00:12:14;4.53;;;4.18;;
37241;SDS011;23135;51.078;12.108;2023-06-26T00:14:39;5.32;;;3.88;;
37241;SDS011;23135;51.078;12.108;2023-06-26T00:17:05;9.30;;;4.45;;
37241;SDS011;23135;51.078;12.108;2023-06-26T00:19:30;7.25;;;4.30;;
37241;SDS011;23135;51.078;12.108;2023-06-26T00:21:56;4.13;;;3.60;;
37241;SDS011;23135;51.078;12.108;2023-06-26T00:24:22;4.53;;;4.07;;
37241;SDS011;23135;51.078;12.108;2023-06-26T00:26:47;7.53;;;3.92;;
37241;SDS011;23135;51.078;12.108;2023-06-26T00:29:13;5.65;;;4.15;;
37241;SDS011;23135;51.078;12.108;2023-06-26T00:31:39;10.30;;;4.88;;
37241;SDS011;23135;51.078;12.108;2023-06-26T00:34:05;6.35;;;4.80;;
37241;SDS011;23135;51.078;12.108;2023-06-26T00:36:31;5.07;;;4.32;;
37241;SDS011;23135;51.078;12.108;2023-06-26T00:38:56;5.80;;;3.95;;
37241;SDS011;23135;51.078;12.108;2023-06-26T00:41:22;6.25;;;4.75;;
37241;SDS011;23135;51.078;12.108;2023-06-26T00:43:47;9.57;;;4.53;;
37241;SDS011;23135;51.078;12.108;2023-06-26T00:46:13;11.82;;;4.82;;
37241;SDS011;23135;51.078;12.108;2023-06-26T00:48:40;5.20;;;4.50;;
37241;SDS011;23135;51.078;12.108;2023-06-26T00:51:08;5.80;;;3.97;;
37241;SDS011;23135;51.078;12.108;2023-06-26T00:53:34;9.88;;;4.97;;
37241;SDS011;23135;51.078;12.108;2023-06-26T00:56:00;7.35;;;4.82;;
37241;SDS011;23135;51.078;12.108;2023-06-26T00:58:26;6.43;;;4.65;;
37241;SDS011;23135;51.078;12.108;2023-06-26T01:00:52;6.50;;;4.90;;
37241;SDS011;23135;51.078;12.108;2023-06-26T01:03:18;7.88;;;5.03;;
37241;SDS011;23135;51.078;12.108;2023-06-26T01:05:47;6.88;;;4.75;;
37241;SDS011;23135;51.078;12.108;2023-06-26T01:08:15;7.93;;;4.80;;
37241;SDS011;23135;51.078;12.108;2023-06-26T01:10:42;8.00;;;5.32;;
37241;SDS011;23135;51.078;12.108;2023-06-26T01:13:08;7.88;;;4.65;;
37241;SDS011;23135;51.078;12.108;2023-06-26T01:15:34;7.72;;;5.18;;
37241;SDS011;23135;51.078;12.108;2023-06-26T01:17:59;6.75;;;4.57;;
37241;SDS011;23135;51.078;12.108;2023-06-26T01:20:29;14.93;;;5.47;;
37241;SDS011;23135;51.078;12.108;2023-06-26T01:25:38;8.55;;;4.53;;
37241;SDS011;23135;51.078;12.108;2023-06-26T01:28:24;4.88;;;4.25;;
37241;SDS011;23135;51.078;12.108;2023-06-26T01:30:50;11.65;;;4.85;;
37241;SDS011;23135;51.078;12.108;2023-06-26T01:33:17;9.32;;;4.93;;
37241;SDS011;23135;51.078;12.108;2023-06-26T01:35:43;8.45;;;4.65;;
37241;SDS011;23135;51.078;12.108;2023-06-26T01:38:13;6.72;;;4.20;;
37241;SDS011;23135;51.078;12.108;2023-06-26T01:40:43;10.38;;;4.78;;
37241;SDS011;23135;51.078;12.108;2023-06-26T01:43:11;4.95;;;4.50;;
37241;SDS011;23135;51.078;12.108;2023-06-26T01:45:40;10.65;;;4.57;;
37241;SDS011;23135;51.078;12.108;2023-06-26T01:48:06;10.30;;;5.35;;
37241;SDS011;23135;51.078;12.108;2023-06-26T01:50:36;12.93;;;4.57;;
37241;SDS011;23135;51.078;12.108;2023-06-26T01:55:46;9.05;;;4.05;;
37241;SDS011;23135;51.078;12.108;2023-06-26T01:58:15;9.02;;;4.22;;
37241;SDS011;23135;51.078;12.108;2023-06-26T02:00:44;14.15;;;4.88;;
37241;SDS011;23135;51.078;12.108;2023-06-26T02:03:09;18.90;;;5.43;;
37241;SDS011;23135;51.078;12.108;2023-06-26T02:05:35;19.67;;;4.97;;
37241;SDS011;23135;51.078;12.108;2023-06-26T02:08:00;11.77;;;3.97;;
37241;SDS011;23135;51.078;12.108;2023-06-26T02:10:27;9.52;;;4.72;;
37241;SDS011;23135;51.078;12.108;2023-06-26T02:12:53;10.98;;;4.72;;
37241;SDS011;23135;51.078;12.108;2023-06-26T02:15:19;9.70;;;5.35;;
37241;SDS011;23135;51.078;12.108;2023-06-26T02:17:44;8.50;;;4.75;;
37241;SDS011;23135;51.078;12.108;2023-06-26T02:20:13;7.57;;;4.53;;
37241;SDS011;23135;51.078;12.108;2023-06-26T02:22:40;13.05;;;5.97;;
37241;SDS011;23135;51.078;12.108;2023-06-26T02:25:06;10.05;;;5.03;;
37241;SDS011;23135;51.078;12.108;2023-06-26T02:27:31;11.85;;;6.25;;
37241;SDS011;23135;51.078;12.108;2023-06-26T02:29:57;12.00;;;4.80;;
37241;SDS011;23135;51.078;12.108;2023-06-26T02:32:23;9.63;;;4.68;;
37241;SDS011;23135;51.078;12.108;2023-06-26T02:34:48;9.57;;;5.13;;
37241;SDS011;23135;51.078;12.108;2023-06-26T02:37:16;18.88;;;5.90;;
37241;SDS011;23135;51.078;12.108;2023-06-26T02:39:42;17.13;;;4.70;;
37241;SDS011;23135;51.078;12.108;2023-06-26T02:42:08;13.38;;;5.65;;
37241;SDS011;23135;51.078;12.108;2023-06-26T02:44:33;14.52;;;5.95;;
37241;SDS011;23135;51.078;12.108;2023-06-26T02:47:00;14.90;;;5.20;;
37241;SDS011;23135;51.078;12.108;2023-06-26T02:49:26;13.35;;;5.45;;
37241;SDS011;23135;51.078;12.108;2023-06-26T02:51:51;12.30;;;5.05;;
37241;SDS011;23135;51.078;12.108;2023-06-26T02:54:17;9.63;;;4.78;;
37241;SDS011;23135;51.078;12.108;2023-06-26T02:56:42;12.10;;;5.05;;
37241;SDS011;23135;51.078;12.108;2023-06-26T02:59:08;21.75;;;5.30;;
37241;SDS011;23135;51.078;12.108;2023-06-26T03:01:33;10.52;;;5.43;;
37241;SDS011;23135;51.078;12.108;2023-06-26T03:04:00;9.57;;;5.72;;
37241;SDS011;23135;51.078;12.108;2023-06-26T03:06:25;9.45;;;4.95;;
37241;SDS011;23135;51.078;12.108;2023-06-26T03:08:52;8.85;;;5.03;;
37241;SDS011;23135;51.078;12.108;2023-06-26T03:11:18;11.60;;;5.13;;
37241;SDS011;23135;51.078;12.108;2023-06-26T03:13:44;10.85;;;5.60;;
37241;SDS011;23135;51.078;12.108;2023-06-26T03:16:10;11.05;;;5.93;;
37241;SDS011;23135;51.078;12.108;2023-06-26T03:18:35;8.50;;;5.53;;
37241;SDS011;23135;51.078;12.108;2023-06-26T03:21:01;10.18;;;5.43;;
37241;SDS011;23135;51.078;12.108;2023-06-26T03:23:27;7.95;;;6.03;;
37241;SDS011;23135;51.078;12.108;2023-06-26T03:25:53;14.38;;;6.80;;
37241;SDS011;23135;51.078;12.108;2023-06-26T03:28:18;11.93;;;4.80;;
37241;SDS011;23135;51.078;12.108;2023-06-26T03:30:44;10.55;;;6.55;;
37241;SDS011;23135;51.078;12.108;2023-06-26T03:33:10;9.93;;;5.68;;
37241;SDS011;23135;51.078;12.108;2023-06-26T03:35:35;9.93;;;5.30;;
37241;SDS011;23135;51.078;12.108;2023-06-26T03:38:03;6.85;;;5.47;;
37241;SDS011;23135;51.078;12.108;2023-06-26T03:40:29;13.07;;;5.50;;
37241;SDS011;23135;51.078;12.108;2023-06-26T03:42:54;12.20;;;6.13;;
37241;SDS011;23135;51.078;12.108;2023-06-26T03:45:20;8.93;;;5.60;;
37241;SDS011;23135;51.078;12.108;2023-06-26T03:47:46;6.00;;;4.22;;
37241;SDS011;23135;51.078;12.108;2023-06-26T03:50:18;8.80;;;5.07;;
37241;SDS011;23135;51.078;12.108;2023-06-26T03:52:44;14.18;;;5.47;;
37241;SDS011;23135;51.078;12.108;2023-06-26T03:55:09;13.32;;;4.63;;
37241;SDS011;23135;51.078;12.108;2023-06-26T03:57:35;11.30;;;5.85;;
37241;SDS011;23135;51.078;12.108;2023-06-26T04:00:01;8.27;;;4.88;;
37241;SDS011;23135;51.078;12.108;2023-06-26T04:02:30;12.23;;;5.65;;
37241;SDS011;23135;51.078;12.108;2023-06-26T04:04:56;11.30;;;4.78;;
37241;SDS011;23135;51.078;12.108;2023-06-26T04:07:21;9.77;;;4.70;;
37241;SDS011;23135;51.078;12.108;2023-06-26T04:09:47;10.85;;;6.38;;
37241;SDS011;23135;51.078;12.108;2023-06-26T04:12:12;17.30;;;5.70;;
37241;SDS011;23135;51.078;12.108;2023-06-26T04:14:38;11.98;;;6.28;;
37241;SDS011;23135;51.078;12.108;2023-06-26T04:17:04;10.77;;;5.30;;
37241;SDS011;23135;51.078;12.108;2023-06-26T04:19:29;9.73;;;5.15;;
37241;SDS011;23135;51.078;12.108;2023-06-26T04:21:55;7.35;;;5.70;;
37241;SDS011;23135;51.078;12.108;2023-06-26T04:24:21;7.80;;;5.22;;
37241;SDS011;23135;51.078;12.108;2023-06-26T04:26:47;16.95;;;5.68;;
37241;SDS011;23135;51.078;12.108;2023-06-26T04:29:12;9.23;;;6.32;;
37241;SDS011;23135;51.078;12.108;2023-06-26T04:31:38;8.40;;;5.13;;
37241;SDS011;23135;51.078;12.108;2023-06-26T04:34:04;11.85;;;5.07;;
37241;SDS011;23135;51.078;12.108;2023-06-26T04:36:30;9.30;;;5.57;;
37241;SDS011;23135;51.078;12.108;2023-06-26T04:38:56;10.77;;;5.68;;
37241;SDS011;23135;51.078;12.108;2023-06-26T04:41:22;7.13;;;5.18;;
37241;SDS011;23135;51.078;12.108;2023-06-26T04:43:48;11.05;;;5.25;;
37241;SDS011;23135;51.078;12.108;2023-06-26T04:46:13;13.55;;;6.72;;
37241;SDS011;23135;51.078;12.108;2023-06-26T04:48:39;11.77;;;5.45;;
37241;SDS011;23135;51.078;12.108;2023-06-26T04:51:04;12.68;;;6.18;;
37241;SDS011;23135;51.078;12.108;2023-06-26T04:53:30;14.02;;;6.38;;
37241;SDS011;23135;51.078;12.108;2023-06-26T04:55:56;10.93;;;5.78;;
37241;SDS011;23135;51.078;12.108;2023-06-26T04:58:21;9.52;;;5.47;;
37241;SDS011;23135;51.078;12.108;2023-06-26T05:00:47;10.27;;;6.80;;
37241;SDS011;23135;51.078;12.108;2023-06-26T05:03:13;6.60;;;5.70;;
37241;SDS011;23135;51.078;12.108;2023-06-26T05:05:40;9.02;;;5.63;;
37241;SDS011;23135;51.078;12.108;2023-06-26T05:08:18;7.57;;;4.82;;
37241;SDS011;23135;51.078;12.108;2023-06-26T05:13:13;11.32;;;4.78;;
37241;SDS011;23135;51.078;12.108;2023-06-26T05:15:42;7.18;;;5.03;;
37241;SDS011;23135;51.078;12.108;2023-06-26T05:18:08;9.38;;;5.85;;
37241;SDS011;23135;51.078;12.108;2023-06-26T05:20:34;12.23;;;4.72;;
37241;SDS011;23135;51.078;12.108;2023-06-26T05:23:01;6.32;;;5.10;;
37241;SDS011;23135;51.078;12.108;2023-06-26T05:25:28;10.23;;;4.82;;
37241;SDS011;23135;51.078;12.108;2023-06-26T05:27:55;12.05;;;4.20;;
37241;SDS011;23135;51.078;12.108;2023-06-26T05:30:24;8.48;;;5.03;;
37241;SDS011;23135;51.078;12.108;2023-06-26T05:32:51;10.65;;;5.28;;
37241;SDS011;23135;51.078;12.108;2023-06-26T05:35:18;7.03;;;5.03;;
37241;SDS011;23135;51.078;12.108;2023-06-26T05:37:47;11.38;;;5.07;;
37241;SDS011;23135;51.078;12.108;2023-06-26T05:40:14;5.63;;;5.05;;
37241;SDS011;23135;51.078;12.108;2023-06-26T05:42:41;8.30;;;5.07;;
37241;SDS011;23135;51.078;12.108;2023-06-26T05:45:07;11.10;;;5.55;;
37241;SDS011;23135;51.078;12.108;2023-06-26T05:47:33;7.80;;;4.63;;
37241;SDS011;23135;51.078;12.108;2023-06-26T05:49:59;6.10;;;4.68;;
37241;SDS011;23135;51.078;12.108;2023-06-26T05:52:25;7.57;;;5.80;;
37241;SDS011;23135;51.078;12.108;2023-06-26T05:54:50;6.68;;;4.88;;
37241;SDS011;23135;51.078;12.108;2023-06-26T05:57:16;6.93;;;4.68;;
37241;SDS011;23135;51.078;12.108;2023-06-26T05:59:43;7.72;;;4.95;;
37241;SDS011;23135;51.078;12.108;2023-06-26T06:02:08;6.85;;;4.53;;
37241;SDS011;23135;51.078;12.108;2023-06-26T06:04:34;5.88;;;4.63;;
37241;SDS011;23135;51.078;12.108;2023-06-26T06:07:00;5.25;;;4.22;;
37241;SDS011;23135;51.078;12.108;2023-06-26T06:09:26;5.20;;;4.50;;
37241;SDS011;23135;51.078;12.108;2023-06-26T06:11:51;5.80;;;4.18;;
37241;SDS011;23135;51.078;12.108;2023-06-26T06:14:17;7.20;;;4.15;;
37241;SDS011;23135;51.078;12.108;2023-06-26T06:16:42;5.28;;;4.65;;
37241;SDS011;23135;51.078;12.108;2023-06-26T06:19:08;8.93;;;4.68;;
37241;SDS011;23135;51.078;12.108;2023-06-26T06:21:36;8.55;;;4.20;;
37241;SDS011;23135;51.078;12.108;2023-06-26T06:24:01;6.70;;;5.10;;
37241;SDS011;23135;51.078;12.108;2023-06-26T06:26:28;6.55;;;4.50;;
37241;SDS011;23135;51.078;12.108;2023-06-26T06:28:53;6.47;;;4.78;;
37241;SDS011;23135;51.078;12.108;2023-06-26T06:31:19;14.80;;;4.30;;
37241;SDS011;23135;51.078;12.108;2023-06-26T06:33:45;11.85;;;4.25;;
37241;SDS011;23135;51.078;12.108;2023-06-26T06:36:10;6.68;;;4.40;;
37241;SDS011;23135;51.078;12.108;2023-06-26T06:38:36;5.32;;;4.22;;
37241;SDS011;23135;51.078;12.108;2023-06-26T06:41:01;5.03;;;4.50;;
37241;SDS011;23135;51.078;12.108;2023-06-26T06:43:27;9.05;;;4.20;;
37241;SDS011;23135;51.078;12.108;2023-06-26T06:45:52;6.45;;;4.30;;
37241;SDS011;23135;51.078;12.108;2023-06-26T06:48:18;4.85;;;4.25;;
37241;SDS011;23135;51.078;12.108;2023-06-26T06:50:43;6.45;;;3.78;;
37241;SDS011;23135;51.078;12.108;2023-06-26T06:53:09;4.88;;;4.35;;
37241;SDS011;23135;51.078;12.108;2023-06-26T06:55:35;6.75;;;4.68;;
37241;SDS011;23135;51.078;12.108;2023-06-26T06:58:00;6.22;;;4.43;;
37241;SDS011;23135;51.078;12.108;2023-06-26T07:00:26;6.07;;;4.47;;
37241;SDS011;23135;51.078;12.108;2023-06-26T07:02:52;4.88;;;4.05;;
37241;SDS011;23135;51.078;12.108;2023-06-26T07:05:18;4.47;;;4.07;;
37241;SDS011;23135;51.078;12.108;2023-06-26T07:07:44;4.65;;;4.25;;
37241;SDS011;23135;51.078;12.108;2023-06-26T07:10:10;9.43;;;4.38;;
37241;SDS011;23135;51.078;12.108;2023-06-26T07:12:37;5.85;;;3.85;;
37241;SDS011;23135;51.078;12.108;2023-06-26T07:15:03;5.03;;;3.95;;
37241;SDS011;23135;51.078;12.108;2023-06-26T07:17:33;9.40;;;4.20;;
37241;SDS011;23135;51.078;12.108;2023-06-26T07:20:00;5.07;;;3.95;;
37241;SDS011;23135;51.078;12.108;2023-06-26T07:22:26;9.70;;;3.67;;
37241;SDS011;23135;51.078;12.108;2023-06-26T07:24:52;7.53;;;4.10;;
37241;SDS011;23135;51.078;12.108;2023-06-26T07:27:18;4.43;;;4.05;;
37241;SDS011;23135;51.078;12.108;2023-06-26T07:29:45;13.00;;;5.20;;
37241;SDS011;23135;51.078;12.108;2023-06-26T07:32:11;4.38;;;3.97;;
37241;SDS011;23135;51.078;12.108;2023-06-26T07:34:37;4.72;;;4.25;;
37241;SDS011;23135;51.078;12.108;2023-06-26T07:37:02;6.35;;;3.67;;
37241;SDS011;23135;51.078;12.108;2023-06-26T07:39:28;5.35;;;4.78;;
37241;SDS011;23135;51.078;12.108;2023-06-26T07:41:54;3.95;;;3.45;;
37241;SDS011;23135;51.078;12.108;2023-06-26T07:44:19;4.75;;;4.10;;
37241;SDS011;23135;51.078;12.108;2023-06-26T07:46:45;4.28;;;3.90;;
37241;SDS011;23135;51.078;12.108;2023-06-26T07:49:11;3.97;;;3.67;;
37241;SDS011;23135;51.078;12.108;2023-06-26T07:51:36;4.30;;;3.90;;
37241;SDS011;23135;51.078;12.108;2023-06-26T07:54:02;4.25;;;3.88;;
37241;SDS011;23135;51.078;12.108;2023-06-26T07:56:28;7.15;;;4.07;;
37241;SDS011;23135;51.078;12.108;2023-06-26T07:58:53;3.90;;;3.65;;
37241;SDS011;23135;51.078;12.108;2023-06-26T08:01:19;4.05;;;3.65;;
37241;SDS011;23135;51.078;12.108;2023-06-26T08:03:45;3.53;;;3.22;;
37241;SDS011;23135;51.078;12.108;2023-06-26T08:06:10;7.45;;;3.00;;
37241;SDS011;23135;51.078;12.108;2023-06-26T08:08:36;7.47;;;4.40;;
37241;SDS011;23135;51.078;12.108;2023-06-26T08:11:01;5.00;;;3.42;;
37241;SDS011;23135;51.078;12.108;2023-06-26T08:13:27;3.42;;;3.13;;
37241;SDS011;23135;51.078;12.108;2023-06-26T08:15:53;10.77;;;3.58;;
37241;SDS011;23135;51.078;12.108;2023-06-26T08:18:18;4.10;;;3.63;;
37241;SDS011;23135;51.078;12.108;2023-06-26T08:20:44;3.78;;;3.47;;
37241;SDS011;23135;51.078;12.108;2023-06-26T08:23:09;3.38;;;3.17;;
37241;SDS011;23135;51.078;12.108;2023-06-26T08:25:35;6.30;;;3.25;;
37241;SDS011;23135;51.078;12.108;2023-06-26T08:28:01;5.53;;;3.10;;
37241;SDS011;23135;51.078;12.108;2023-06-26T08:30:26;5.28;;;4.60;;
37241;SDS011;23135;51.078;12.108;2023-06-26T08:32:54;3.55;;;3.20;;
37241;SDS011;23135;51.078;12.108;2023-06-26T08:35:22;3.78;;;3.22;;
37241;SDS011;23135;51.078;12.108;2023-06-26T08:37:48;5.82;;;3.42;;
37241;SDS011;23135;51.078;12.108;2023-06-26T08:40:16;3.53;;;3.33;;
37241;SDS011;23135;51.078;12.108;2023-06-26T08:42:43;5.45;;;3.15;;
37241;SDS011;23135;51.078;12.108;2023-06-26T08:45:09;3.85;;;3.55;;
37241;SDS011;23135;51.078;12.108;2023-06-26T08:47:34;2.53;;;2.42;;
37241;SDS011;23135;51.078;12.108;2023-06-26T08:52:43;3.22;;;3.03;;
37241;SDS011;23135;51.078;12.108;2023-06-26T08:55:12;3.88;;;3.50;;
37241;SDS011;23135;51.078;12.108;2023-06-26T08:57:41;3.85;;;3.35;;
37241;SDS011;23135;51.078;12.108;2023-06-26T09:00:07;2.90;;;2.70;;
37241;SDS011;23135;51.078;12.108;2023-06-26T09:02:34;4.45;;;3.58;;
37241;SDS011;23135;51.078;12.108;2023-06-26T09:05:02;5.53;;;3.88;;
37241;SDS011;23135;51.078;12.108;2023-06-26T09:07:28;3.10;;;2.70;;
37241;SDS011;23135;51.078;12.108;2023-06-26T09:09:54;2.50;;;2.33;;
37241;SDS011;23135;51.078;12.108;2023-06-26T09:12:20;3.10;;;2.90;;
37241;SDS011;23135;51.078;12.108;2023-06-26T09:14:47;2.53;;;2.35;;
37241;SDS011;23135;51.078;12.108;2023-06-26T09:17:13;2.95;;;2.78;;
37241;SDS011;23135;51.078;12.108;2023-06-26T09:19:39;2.33;;;2.22;;
37241;SDS011;23135;51.078;12.108;2023-06-26T09:22:05;3.28;;;2.58;;
37241;SDS011;23135;51.078;12.108;2023-06-26T09:24:37;3.28;;;3.05;;
37241;SDS011;23135;51.078;12.108;2023-06-26T09:27:03;2.83;;;2.65;;
37241;SDS011;23135;51.078;12.108;2023-06-26T09:29:29;3.22;;;2.92;;
37241;SDS011;23135;51.078;12.108;2023-06-26T09:31:56;2.50;;;2.40;;
37241;SDS011;23135;51.078;12.108;2023-06-26T09:34:22;2.97;;;2.50;;
37241;SDS011;23135;51.078;12.108;2023-06-26T09:36:54;4.13;;;2.30;;
37241;SDS011;23135;51.078;12.108;2023-06-26T09:39:20;2.13;;;2.03;;
37241;SDS011;23135;51.078;12.108;2023-06-26T09:41:46;2.13;;;2.03;;
37241;SDS011;23135;51.078;12.108;2023-06-26T09:44:13;3.45;;;2.75;;
37241;SDS011;23135;51.078;12.108;2023-06-26T09:46:39;3.65;;;2.05;;
37241;SDS011;23135;51.078;12.108;2023-06-26T09:51:31;2.35;;;2.25;;
37241;SDS011;23135;51.078;12.108;2023-06-26T09:54:01;2.28;;;1.98;;
37241;SDS011;23135;51.078;12.108;2023-06-26T09:56:27;2.85;;;2.67;;
37241;SDS011;23135;51.078;12.108;2023-06-26T09:58:57;4.55;;;2.50;;
37241;SDS011;23135;51.078;12.108;2023-06-26T10:01:24;2.10;;;2.00;;
37241;SDS011;23135;51.078;12.108;2023-06-26T10:03:50;2.30;;;2.10;;
37241;SDS011;23135;51.078;12.108;2023-06-26T10:06:22;2.58;;;2.38;;
37241;SDS011;23135;51.078;12.108;2023-06-26T10:08:53;2.05;;;1.95;;
37241;SDS011;23135;51.078;12.108;2023-06-26T10:11:21;4.93;;;2.63;;
37241;SDS011;23135;51.078;12.108;2023-06-26T10:13:47;2.60;;;2.38;;
37241;SDS011;23135;51.078;12.108;2023-06-26T10:16:21;2.80;;;2.60;;
37241;SDS011;23135;51.078;12.108;2023-06-26T10:18:51;4.93;;;2.30;;
37241;SDS011;23135;51.078;12.108;2023-06-26T10:21:20;2.60;;;2.40;;
37241;SDS011;23135;51.078;12.108;2023-06-26T10:23:48;3.20;;;3.00;;
37241;SDS011;23135;51.078;12.108;2023-06-26T10:26:16;1.98;;;1.75;;
37241;SDS011;23135;51.078;12.108;2023-06-26T10:28:43;2.70;;;2.58;;
37241;SDS011;23135;51.078;12.108;2023-06-26T10:31:10;2.28;;;2.17;;
37241;SDS011;23135;51.078;12.108;2023-06-26T10:33:37;2.90;;;2.70;;
37241;SDS011;23135;51.078;12.108;2023-06-26T10:36:13;3.33;;;3.13;;
37241;SDS011;23135;51.078;12.108;2023-06-26T10:39:01;2.10;;;2.00;;
37241;SDS011;23135;51.078;12.108;2023-06-26T10:41:36;2.83;;;2.63;;
37241;SDS011;23135;51.078;12.108;2023-06-26T10:44:12;2.40;;;2.30;;
37241;SDS011;23135;51.078;12.108;2023-06-26T10:47:28;2.57;;;2.47;;
37241;SDS011;23135;51.078;12.108;2023-06-26T10:49:34;2.58;;;2.42;;
37241;SDS011;23135;51.078;12.108;2023-06-26T10:52:01;2.35;;;2.10;;
37241;SDS011;23135;51.078;12.108;2023-06-26T10:54:33;3.05;;;2.72;;
37241;SDS011;23135;51.078;12.108;2023-06-26T10:57:07;3.00;;;2.70;;
37241;SDS011;23135;51.078;12.108;2023-06-26T10:59:32;3.47;;;3.17;;
37241;SDS011;23135;51.078;12.108;2023-06-26T11:01:59;2.72;;;2.20;;
37241;SDS011;23135;51.078;12.108;2023-06-26T11:07:15;2.50;;;2.35;;
37241;SDS011;23135;51.078;12.108;2023-06-26T11:09:53;3.50;;;3.10;;
37241;SDS011;23135;51.078;12.108;2023-06-26T11:12:35;2.65;;;2.45;;
37241;SDS011;23135;51.078;12.108;2023-06-26T11:15:13;2.10;;;2.10;;
37241;SDS011;23135;51.078;12.108;2023-06-26T11:17:44;4.22;;;2.40;;
37241;SDS011;23135;51.078;12.108;2023-06-26T11:20:11;7.30;;;2.58;;
37241;SDS011;23135;51.078;12.108;2023-06-26T11:22:39;2.80;;;2.60;;
37241;SDS011;23135;51.078;12.108;2023-06-26T11:25:05;2.70;;;2.60;;
37241;SDS011;23135;51.078;12.108;2023-06-26T11:27:32;2.83;;;2.63;;
37241;SDS011;23135;51.078;12.108;2023-06-26T11:30:06;3.00;;;2.47;;
37241;SDS011;23135;51.078;12.108;2023-06-26T11:32:35;2.65;;;2.45;;
37241;SDS011;23135;51.078;12.108;2023-06-26T11:35:01;2.83;;;2.63;;
37241;SDS011;23135;51.078;12.108;2023-06-26T11:37:27;3.83;;;2.38;;
37241;SDS011;23135;51.078;12.108;2023-06-26T11:39:52;4.47;;;2.58;;
37241;SDS011;23135;51.078;12.108;2023-06-26T11:42:19;3.25;;;2.58;;
37241;SDS011;23135;51.078;12.108;2023-06-26T11:44:45;3.35;;;2.70;;
37241;SDS011;23135;51.078;12.108;2023-06-26T11:47:12;3.33;;;3.13;;
37241;SDS011;23135;51.078;12.108;2023-06-26T11:49:42;3.10;;;2.90;;
37241;SDS011;23135;51.078;12.108;2023-06-26T11:52:11;2.75;;;2.55;;
37241;SDS011;23135;51.078;12.108;2023-06-26T11:54:37;3.65;;;2.80;;
37241;SDS011;23135;51.078;12.108;2023-06-26T11:57:03;2.97;;;2.78;;
37241;SDS011;23135;51.078;12.108;2023-06-26T11:59:38;2.40;;;2.30;;
37241;SDS011;23135;51.078;12.108;2023-06-26T12:02:08;3.00;;;2.80;;
37241;SDS011;23135;51.078;12.108;2023-06-26T12:04:38;4.47;;;2.67;;
37241;SDS011;23135;51.078;12.108;2023-06-26T12:07:08;1.75;;;1.63;;
37241;SDS011;23135;51.078;12.108;2023-06-26T12:09:40;2.47;;;2.38;;
37241;SDS011;23135;51.078;12.108;2023-06-26T12:12:11;2.13;;;2.03;;
37241;SDS011;23135;51.078;12.108;2023-06-26T12:14:38;2.63;;;2.53;;
37241;SDS011;23135;51.078;12.108;2023-06-26T12:17:07;2.95;;;2.28;;
37241;SDS011;23135;51.078;12.108;2023-06-26T12:19:36;2.50;;;2.40;;
37241;SDS011;23135;51.078;12.108;2023-06-26T12:22:08;2.65;;;2.50;;
37241;SDS011;23135;51.078;12.108;2023-06-26T12:24:36;2.60;;;2.42;;
37241;SDS011;23135;51.078;12.108;2023-06-26T12:27:07;3.20;;;3.00;;
37241;SDS011;23135;51.078;12.108;2023-06-26T12:29:37;2.60;;;2.40;;
37241;SDS011;23135;51.078;12.108;2023-06-26T12:32:04;2.53;;;2.42;;
37241;SDS011;23135;51.078;12.108;2023-06-26T12:34:36;2.70;;;2.40;;
37241;SDS011;23135;51.078;12.108;2023-06-26T12:37:04;3.55;;;3.25;;
37241;SDS011;23135;51.078;12.108;2023-06-26T12:39:45;2.28;;;2.17;;
37241;SDS011;23135;51.078;12.108;2023-06-26T12:42:14;2.92;;;2.40;;
37241;SDS011;23135;51.078;12.108;2023-06-26T12:44:44;3.38;;;3.08;;
37241;SDS011;23135;51.078;12.108;2023-06-26T12:47:10;3.53;;;3.22;;
37241;SDS011;23135;51.078;12.108;2023-06-26T12:49:38;2.70;;;2.53;;
37241;SDS011;23135;51.078;12.108;2023-06-26T12:52:06;2.83;;;2.72;;
37241;SDS011;23135;51.078;12.108;2023-06-26T12:54:36;3.72;;;2.75;;
37241;SDS011;23135;51.078;12.108;2023-06-26T12:57:04;2.60;;;2.40;;
37241;SDS011;23135;51.078;12.108;2023-06-26T12:59:30;2.70;;;2.50;;
37241;SDS011;23135;51.078;12.108;2023-06-26T13:01:57;3.75;;;2.85;;
37241;SDS011;23135;51.078;12.108;2023-06-26T13:04:23;3.20;;;2.90;;
37241;SDS011;23135;51.078;12.108;2023-06-26T13:06:48;6.90;;;2.35;;
37241;SDS011;23135;51.078;12.108;2023-06-26T13:09:14;2.70;;;2.60;;
37241;SDS011;23135;51.078;12.108;2023-06-26T13:11:40;3.35;;;2.95;;
37241;SDS011;23135;51.078;12.108;2023-06-26T13:14:06;3.20;;;3.05;;
37241;SDS011;23135;51.078;12.108;2023-06-26T13:16:32;3.30;;;3.05;;
37241;SDS011;23135;51.078;12.108;2023-06-26T13:18:58;2.58;;;2.47;;
37241;SDS011;23135;51.078;12.108;2023-06-26T13:21:25;4.65;;;2.65;;
37241;SDS011;23135;51.078;12.108;2023-06-26T13:23:50;3.20;;;3.00;;
37241;SDS011;23135;51.078;12.108;2023-06-26T13:26:16;2.83;;;2.67;;
37241;SDS011;23135;51.078;12.108;2023-06-26T13:28:41;3.40;;;2.75;;
37241;SDS011;23135;51.078;12.108;2023-06-26T13:31:07;3.33;;;3.08;;
37241;SDS011;23135;51.078;12.108;2023-06-26T13:33:32;4.68;;;2.88;;
37241;SDS011;23135;51.078;12.108;2023-06-26T13:35:58;2.90;;;2.70;;
37241;SDS011;23135;51.078;12.108;2023-06-26T13:38:24;2.47;;;2.33;;
37241;SDS011;23135;51.078;12.108;2023-06-26T13:40:51;5.28;;;3.28;;
37241;SDS011;23135;51.078;12.108;2023-06-26T13:43:17;2.42;;;2.30;;
37241;SDS011;23135;51.078;12.108;2023-06-26T13:45:42;2.65;;;2.45;;
37241;SDS011;23135;51.078;12.108;2023-06-26T13:48:08;3.00;;;2.80;;
37241;SDS011;23135;51.078;12.108;2023-06-26T13:50:33;4.72;;;2.72;;
37241;SDS011;23135;51.078;12.108;2023-06-26T13:52:59;3.35;;;3.13;;
37241;SDS011;23135;51.078;12.108;2023-06-26T13:55:25;2.53;;;2.42;;
37241;SDS011;23135;51.078;12.108;2023-06-26T13:57:51;2.80;;;2.60;;
37241;SDS011;23135;51.078;12.108;2023-06-26T14:00:16;3.80;;;3.47;;
37241;SDS011;23135;51.078;12.108;2023-06-26T14:02:45;3.20;;;3.00;;
37241;SDS011;23135;51.078;12.108;2023-06-26T14:05:11;3.30;;;3.00;;
37241;SDS011;23135;51.078;12.108;2023-06-26T14:07:37;3.10;;;2.90;;
37241;SDS011;23135;51.078;12.108;2023-06-26T14:10:03;3.22;;;3.03;;
37241;SDS011;23135;51.078;12.108;2023-06-26T14:12:30;17.50;;;3.65;;
37241;SDS011;23135;51.078;12.108;2023-06-26T14:14:56;14.10;;;4.35;;
37241;SDS011;23135;51.078;12.108;2023-06-26T14:17:22;15.35;;;4.35;;
37241;SDS011;23135;51.078;12.108;2023-06-26T14:19:49;15.93;;;4.47;;
37241;SDS011;23135;51.078;12.108;2023-06-26T14:22:14;6.78;;;4.70;;
37241;SDS011;23135;51.078;12.108;2023-06-26T14:24:40;22.05;;;5.32;;
37241;SDS011;23135;51.078;12.108;2023-06-26T14:27:06;10.27;;;4.53;;
37241;SDS011;23135;51.078;12.108;2023-06-26T14:29:31;16.08;;;4.90;;
37241;SDS011;23135;51.078;12.108;2023-06-26T14:31:57;9.52;;;5.80;;
37241;SDS011;23135;51.078;12.108;2023-06-26T14:34:22;10.18;;;5.70;;
37241;SDS011;23135;51.078;12.108;2023-06-26T14:36:48;13.38;;;5.68;;
37241;SDS011;23135;51.078;12.108;2023-06-26T14:39:13;9.70;;;4.93;;
37241;SDS011;23135;51.078;12.108;2023-06-26T14:41:39;11.18;;;5.22;;
37241;SDS011;23135;51.078;12.108;2023-06-26T14:44:04;12.77;;;5.93;;